Time;durP1;ratioP1;P1;durP2;ratioP2;P2;SDS_P1;SDS_P2;PMS_P1;PMS_P2;Temp;Humidity;BMP_temperature;BMP_pressure;BME280_temperature;BME280_humidity;BME280_pressure;Samples;Min_cycle;Max_cycle;Signal;HPM_P1;HPM_P2
2022/12/15 00:39:40;;;;;;;4.13;3.17;;;8.60;60.30;;;;;;5036429;28;20353;-85
2022/12/15 00:42:07;;;;;;;4.20;3.35;;;8.60;60.20;;;;;;5035611;28;20032;-86
2022/12/15 00:44:33;;;;;;;4.05;3.38;;;8.60;60.20;;;;;;5035506;28;20033;-84
2022/12/15 00:46:59;;;;;;;4.47;3.38;;;8.50;60.20;;;;;;5034834;28;20052;-83
2022/12/15 01:22:38;;;;;;;4.97;3.65;;;8.50;60.20;;;;;;5038835;28;20042;-83
2022/12/15 01:25:06;;;;;;;5.63;3.60;;;8.50;60.20;;;;;;5039766;28;20215;-83
2022/12/15 01:27:32;;;;;;;4.43;3.60;;;8.50;60.20;;;;;;5038546;28;20083;-83
2022/12/15 01:29:58;;;;;;;4.90;3.47;;;8.50;60.20;;;;;;5038342;28;20033;-84
2022/12/15 01:32:24;;;;;;;4.60;3.10;;;8.50;60.10;;;;;;5038886;28;20056;-83
2022/12/15 01:34:50;;;;;;;4.55;3.90;;;8.50;60.20;;;;;;5039960;28;20552;-84
2022/12/15 01:37:16;;;;;;;4.35;3.63;;;8.50;60.10;;;;;;5037794;28;20125;-84
2022/12/15 01:42:27;;;;;;;4.13;3.38;;;8.50;60.10;;;;;;5037849;28;20033;-86
2022/12/15 01:45:13;;;;;;;4.05;3.50;;;8.50;60.10;;;;;;5037716;28;20037;-86
2022/12/15 01:47:39;;;;;;;5.50;3.90;;;8.50;60.10;;;;;;5037581;28;20511;-85
2022/12/15 01:50:12;;;;;;;4.30;3.85;;;8.50;60.00;;;;;;5037863;28;20120;-86
2022/12/15 01:52:38;;;;;;;5.65;4.25;;;8.50;60.10;;;;;;5022142;28;20034;-84
2022/12/15 01:55:05;;;;;;;4.95;4.15;;;8.50;60.00;;;;;;5042721;28;20043;-79
2022/12/15 01:57:34;;;;;;;4.85;3.72;;;8.50;60.00;;;;;;5051881;28;20429;-84
2022/12/15 02:00:03;;;;;;;6.05;4.13;;;8.50;60.00;;;;;;5043014;28;20068;-81
2022/12/15 02:02:34;;;;;;;6.78;4.07;;;8.50;60.00;;;;;;5056156;28;20144;-83
2022/12/15 02:05:01;;;;;;;4.60;3.33;;;8.50;60.00;;;;;;5038155;28;20037;-85
2022/12/15 02:07:28;;;;;;;5.95;3.70;;;8.50;60.00;;;;;;5036625;28;20118;-83
2022/12/15 02:09:59;;;;;;;5.07;3.92;;;8.50;60.00;;;;;;5053675;28;20065;-83
2022/12/15 02:12:43;;;;;;;4.97;3.70;;;8.50;60.00;;;;;;5037873;28;20608;-83
2022/12/15 02:15:18;;;;;;;5.32;3.92;;;8.50;60.00;;;;;;5038920;28;20043;-84
2022/12/15 02:17:53;;;;;;;10.40;4.30;;;8.50;60.00;;;;;;5036680;28;20033;-81
2022/12/15 02:20:19;;;;;;;6.78;4.00;;;8.50;60.00;;;;;;5037699;28;20033;-81
2022/12/15 02:23:13;;;;;;;5.75;3.85;;;8.50;60.00;;;;;;5020663;28;20036;-82
2022/12/15 02:26:06;;;;;;;4.75;4.00;;;8.50;60.00;;;;;;5037293;28;20091;-85
2022/12/15 02:28:59;;;;;;;5.47;4.28;;;8.50;59.80;;;;;;5039203;28;20094;-84
2022/12/15 02:31:49;;;;;;;6.45;4.28;;;8.40;59.80;;;;;;5016729;28;20052;-81
2022/12/15 02:34:54;;;;;;;5.38;4.47;;;8.40;59.70;;;;;;5015611;28;20451;-84
2022/12/15 02:37:28;;;;;;;6.03;3.90;;;8.40;59.70;;;;;;4989126;28;20146;-81
2022/12/15 02:39:54;;;;;;;5.20;4.38;;;8.40;59.60;;;;;;5017944;28;20164;-86
2022/12/15 02:42:22;;;;;;;4.90;4.05;;;8.40;59.60;;;;;;4995645;28;20034;-84
2022/12/15 02:44:52;;;;;;;6.10;4.10;;;8.40;59.70;;;;;;4996418;28;20025;-84
2022/12/15 02:47:38;;;;;;;5.38;4.30;;;8.40;59.50;;;;;;4995758;28;20033;-87
2022/12/15 02:50:39;;;;;;;5.45;4.20;;;8.40;59.60;;;;;;4962001;28;20034;-88
2022/12/15 02:53:34;;;;;;;6.30;4.20;;;8.30;59.50;;;;;;4934969;28;20134;-86
2022/12/15 02:56:12;;;;;;;7.30;4.30;;;8.30;59.60;;;;;;4994900;28;20088;-85
2022/12/15 02:58:57;;;;;;;6.47;4.20;;;8.30;59.60;;;;;;4979460;28;20042;-86
2022/12/15 03:01:29;;;;;;;5.35;4.43;;;8.30;59.50;;;;;;4993271;28;20034;-86
2022/12/15 03:03:56;;;;;;;6.13;4.32;;;8.30;59.40;;;;;;4978782;28;20052;-83
2022/12/15 03:06:25;;;;;;;5.18;3.88;;;8.30;59.40;;;;;;4995027;28;20034;-81
2022/12/15 03:08:51;;;;;;;6.45;4.13;;;8.30;59.40;;;;;;5022734;28;20048;-83
2022/12/15 03:11:17;;;;;;;5.82;4.25;;;8.30;59.40;;;;;;5037405;28;20029;-84
2022/12/15 03:13:43;;;;;;;6.60;4.53;;;8.30;59.50;;;;;;5036975;28;20087;-86
2022/12/15 03:16:09;;;;;;;6.75;4.25;;;8.30;59.40;;;;;;5028139;28;20033;-84
2022/12/15 03:18:35;;;;;;;6.60;4.72;;;8.30;59.50;;;;;;5055570;28;20029;-86
2022/12/15 03:21:01;;;;;;;6.65;4.43;;;8.30;59.50;;;;;;5039009;28;20806;-84
2022/12/15 03:23:30;;;;;;;6.03;4.10;;;8.20;59.50;;;;;;5036325;28;20036;-83
2022/12/15 03:25:56;;;;;;;4.85;3.92;;;8.20;59.40;;;;;;5033061;28;20065;-83
2022/12/15 03:28:28;;;;;;;4.85;4.00;;;8.20;59.40;;;;;;5035760;28;20044;-82
2022/12/15 03:30:57;;;;;;;6.18;4.68;;;8.20;59.30;;;;;;5020192;28;20033;-82
2022/12/15 03:33:23;;;;;;;5.53;4.18;;;8.20;59.30;;;;;;5051189;28;20091;-81
2022/12/15 03:35:50;;;;;;;5.90;4.50;;;8.20;59.30;;;;;;5038267;28;20021;-84
2022/12/15 03:38:16;;;;;;;6.32;4.47;;;8.20;59.40;;;;;;5035205;28;20037;-85
2022/12/15 03:40:42;;;;;;;5.82;4.47;;;8.20;59.50;;;;;;5018904;28;20037;-85
2022/12/15 03:43:08;;;;;;;6.22;4.20;;;8.20;59.60;;;;;;5036850;28;20417;-84
2022/12/15 03:45:34;;;;;;;5.25;4.30;;;8.20;59.60;;;;;;5036551;28;20037;-88
2022/12/15 03:48:01;;;;;;;7.03;4.85;;;8.10;59.50;;;;;;5036990;28;20036;-81
2022/12/15 03:50:29;;;;;;;5.75;4.25;;;8.10;59.50;;;;;;5028690;28;20052;-86
2022/12/15 03:52:59;;;;;;;4.90;4.03;;;8.10;59.40;;;;;;5053409;28;20081;-87
2022/12/15 03:55:27;;;;;;;5.72;4.80;;;8.10;59.50;;;;;;5050440;28;20025;-80
2022/12/15 03:57:54;;;;;;;5.88;4.32;;;8.10;60.10;;;;;;5028060;28;20766;-79
2022/12/15 04:00:21;;;;;;;6.85;4.88;;;8.10;59.40;;;;;;5035709;28;21167;-80
2022/12/15 04:02:49;;;;;;;5.70;4.43;;;8.10;60.10;;;;;;5035883;28;20371;-81
2022/12/15 04:05:28;;;;;;;4.95;3.95;;;8.10;59.40;;;;;;5034823;28;20029;-80
2022/12/15 04:07:55;;;;;;;6.20;4.35;;;8.10;59.50;;;;;;5034574;28;20439;-79
2022/12/15 04:10:23;;;;;;;5.70;4.60;;;8.10;59.50;;;;;;5034338;28;20063;-77
2022/12/15 04:12:56;;;;;;;7.80;4.80;;;8.10;59.40;;;;;;5044238;28;20061;-78
2022/12/15 04:15:22;;;;;;;6.60;4.53;;;8.10;59.50;;;;;;5034014;28;20463;-77
2022/12/15 04:17:48;;;;;;;4.95;4.43;;;8.10;59.50;;;;;;5036390;28;20037;-78
2022/12/15 04:20:14;;;;;;;5.35;4.18;;;8.00;59.60;;;;;;5035425;28;20076;-77
2022/12/15 04:22:42;;;;;;;5.35;4.22;;;8.10;59.60;;;;;;5034522;28;20068;-77
2022/12/15 05:31:50;;;;;;;6.32;4.57;;;8.10;61.40;;;;;;5033591;28;20033;-76
2022/12/15 05:34:28;;;;;;;5.38;4.07;;;8.10;61.40;;;;;;5035470;28;20029;-75
2022/12/15 05:36:56;;;;;;;9.35;5.13;;;8.10;61.20;;;;;;5033192;28;20091;-76
2022/12/15 05:39:23;;;;;;;8.65;4.72;;;8.10;61.20;;;;;;5033689;28;20040;-76
2022/12/15 05:41:50;;;;;;;7.90;4.35;;;8.10;61.10;;;;;;5033679;28;20021;-78
2022/12/15 05:44:17;;;;;;;5.75;4.57;;;8.10;60.90;;;;;;5034438;28;20041;-78
2022/12/15 05:46:43;;;;;;;7.82;4.88;;;8.10;60.90;;;;;;5033458;28;20033;-78
2022/12/15 05:49:13;;;;;;;7.15;4.63;;;8.10;60.70;;;;;;5033196;28;20036;-78
2022/12/15 05:51:40;;;;;;;5.60;4.47;;;8.10;60.60;;;;;;5033790;28;20035;-78
2022/12/15 05:54:08;;;;;;;6.05;4.40;;;8.10;60.50;;;;;;5034210;28;20036;-77
2022/12/15 05:56:34;;;;;;;7.43;4.82;;;8.10;60.30;;;;;;5033822;28;20033;-78
2022/12/15 05:59:00;;;;;;;6.43;4.45;;;8.10;60.10;;;;;;5033722;28;20037;-77
2022/12/15 06:01:27;;;;;;;8.00;4.63;;;8.10;60.10;;;;;;5036508;28;20037;-76
2022/12/15 06:03:53;;;;;;;7.20;4.47;;;8.10;60.00;;;;;;5036075;28;20079;-77
2022/12/15 06:06:19;;;;;;;6.05;3.92;;;8.10;59.80;;;;;;5037512;28;20041;-77
2022/12/15 06:08:46;;;;;;;5.40;4.18;;;8.10;59.80;;;;;;5036289;28;20029;-77
2022/12/15 06:11:14;;;;;;;6.80;4.80;;;8.10;59.60;;;;;;5035743;28;20543;-77
2022/12/15 06:13:41;;;;;;;7.28;4.50;;;8.10;59.50;;;;;;5037594;28;20034;-76
2022/12/15 06:16:12;;;;;;;21.35;4.82;;;8.10;59.50;;;;;;5043100;28;20029;-79
2022/12/15 06:18:42;;;;;;;13.18;4.00;;;8.10;59.90;;;;;;5041204;28;20519;-80
2022/12/15 06:21:11;;;;;;;14.90;5.32;;;8.10;60.90;;;;;;5038373;28;20377;-80
2022/12/15 06:23:38;;;;;;;9.95;3.88;;;8.20;61.50;;;;;;5037202;28;20051;-79
2022/12/15 06:26:11;;;;;;;10.93;3.90;;;8.20;61.50;;;;;;5019262;28;20041;-80
2022/12/15 06:28:38;;;;;;;7.50;4.40;;;8.20;61.20;;;;;;5036455;28;20099;-80
2022/12/15 06:31:06;;;;;;;5.75;4.20;;;8.20;60.90;;;;;;5037282;28;20087;-80
2022/12/15 06:33:33;;;;;;;6.70;4.97;;;8.20;60.60;;;;;;5039622;28;20025;-81
2022/12/15 06:36:07;;;;;;;5.82;4.15;;;8.20;60.50;;;;;;5036229;28;20523;-79
2022/12/15 06:38:33;;;;;;;7.82;5.38;;;8.20;60.30;;;;;;5029120;28;20033;-79
2022/12/15 06:41:01;;;;;;;8.27;4.65;;;8.20;60.20;;;;;;5037127;28;20562;-80
2022/12/15 06:43:27;;;;;;;5.68;4.45;;;8.20;60.00;;;;;;5035862;28;20041;-79
2022/12/15 06:45:54;;;;;;;8.57;5.13;;;8.20;60.00;;;;;;5036493;28;20044;-79
2022/12/15 06:48:21;;;;;;;7.88;4.88;;;8.20;60.00;;;;;;5036830;28;20063;-79
2022/12/15 06:50:47;;;;;;;6.68;5.47;;;8.20;59.90;;;;;;5037264;28;20407;-79
2022/12/15 06:53:14;;;;;;;8.48;4.90;;;8.20;59.80;;;;;;5036494;28;20037;-79
2022/12/15 06:55:41;;;;;;;6.40;4.53;;;8.20;60.30;;;;;;5028997;28;20484;-79
2022/12/15 06:58:07;;;;;;;8.80;5.13;;;8.20;59.70;;;;;;5037678;28;20041;-78
2022/12/15 07:00:35;;;;;;;9.90;5.40;;;8.20;59.60;;;;;;5037614;28;20034;-79
2022/12/15 07:03:02;;;;;;;6.82;5.20;;;8.20;59.60;;;;;;5038131;28;20098;-80
2022/12/15 07:05:29;;;;;;;7.32;5.43;;;8.20;59.60;;;;;;5028751;28;20579;-79
2022/12/15 07:07:54;;;;;;;8.15;6.05;;;8.20;59.50;;;;;;5037351;28;20117;-79
2022/12/15 07:10:21;;;;;;;7.45;5.28;;;8.20;59.60;;;;;;5037990;28;20164;-79
2022/12/15 07:12:47;;;;;;;8.45;5.80;;;8.20;59.60;;;;;;5035862;28;20086;-81
2022/12/15 07:15:13;;;;;;;7.40;5.93;;;8.20;59.60;;;;;;5036405;28;20036;-79
2022/12/15 07:17:39;;;;;;;9.27;6.05;;;8.20;59.70;;;;;;5036915;28;20117;-79
2022/12/15 07:20:06;;;;;;;7.95;5.65;;;8.20;59.70;;;;;;5035216;28;20128;-80
2022/12/15 07:22:33;;;;;;;9.50;6.38;;;8.20;59.70;;;;;;5035799;28;20083;-80
2022/12/15 07:24:58;;;;;;;8.90;6.53;;;8.20;59.60;;;;;;5051179;28;20120;-78
2022/12/15 07:27:25;;;;;;;8.02;6.00;;;8.20;59.60;;;;;;5036857;28;20037;-80
2022/12/15 07:29:51;;;;;;;9.95;6.60;;;8.20;59.40;;;;;;5037518;28;20033;-79
2022/12/15 07:32:17;;;;;;;8.43;6.50;;;8.20;59.40;;;;;;5035943;28;20033;-78
2022/12/15 07:34:44;;;;;;;8.95;6.45;;;8.20;59.30;;;;;;5036971;28;20501;-78
2022/12/15 07:37:10;;;;;;;9.43;6.28;;;8.20;59.20;;;;;;5019406;28;20038;-80
2022/12/15 07:39:36;;;;;;;9.70;6.63;;;8.30;59.20;;;;;;5036607;28;20032;-82
2022/12/15 07:42:02;;;;;;;8.43;6.45;;;8.20;59.20;;;;;;5035331;28;20029;-87
2022/12/15 07:44:28;;;;;;;9.50;6.70;;;8.20;59.10;;;;;;5037552;28;20048;-88
2022/12/15 07:46:54;;;;;;;8.82;6.50;;;8.20;59.10;;;;;;5036046;28;20500;-86
2022/12/15 07:49:20;;;;;;;9.38;6.90;;;8.20;59.10;;;;;;5039033;28;20037;-84
2022/12/15 07:51:46;;;;;;;10.15;6.70;;;8.20;59.10;;;;;;5038720;28;20079;-85
2022/12/15 07:54:13;;;;;;;9.18;6.70;;;8.20;59.10;;;;;;5021400;28;20084;-87
2022/12/15 07:56:39;;;;;;;9.35;6.32;;;8.30;59.10;;;;;;5027935;28;20029;-83
2022/12/15 07:59:06;;;;;;;8.15;6.60;;;8.20;58.80;;;;;;5036019;28;20079;-83
2022/12/15 08:01:34;;;;;;;8.82;5.82;;;8.20;58.70;;;;;;5002570;28;20059;-86
2022/12/15 08:04:00;;;;;;;10.50;6.82;;;8.30;59.30;;;;;;5026448;28;20056;-86
2022/12/15 08:06:26;;;;;;;9.02;6.43;;;8.20;58.60;;;;;;5017801;28;20048;-87
2022/12/15 08:08:52;;;;;;;10.45;6.85;;;8.20;58.50;;;;;;5037098;28;20025;-80
2022/12/15 08:11:20;;;;;;;8.63;6.20;;;8.30;58.50;;;;;;5001120;28;20108;-78
2022/12/15 08:13:46;;;;;;;10.48;6.70;;;8.20;58.30;;;;;;5034571;28;20033;-79
2022/12/15 08:16:12;;;;;;;7.95;6.25;;;8.20;58.30;;;;;;5036067;28;20029;-80
2022/12/15 08:18:39;;;;;;;8.63;5.70;;;8.30;58.40;;;;;;5035281;28;20057;-79
2022/12/15 08:21:09;;;;;;;8.48;5.63;;;8.20;58.30;;;;;;5034134;28;20777;-79
2022/12/15 08:23:36;;;;;;;9.05;6.20;;;8.20;58.40;;;;;;5025864;28;20102;-81
2022/12/15 08:26:08;;;;;;;10.13;6.18;;;8.20;58.30;;;;;;5033068;28;20045;-79
2022/12/15 08:28:35;;;;;;;10.20;6.30;;;8.20;58.40;;;;;;5034246;28;20038;-80
2022/12/15 08:31:06;;;;;;;8.75;5.80;;;8.20;58.40;;;;;;5035589;28;20115;-78
2022/12/15 08:33:32;;;;;;;8.75;6.05;;;8.30;58.40;;;;;;5034011;28;20029;-79
2022/12/15 08:36:01;;;;;;;8.07;5.85;;;8.20;58.20;;;;;;5034898;28;20468;-79
2022/12/15 08:38:27;;;;;;;7.82;6.03;;;8.30;58.40;;;;;;5035805;28;20032;-78
2022/12/15 08:40:54;;;;;;;8.98;5.80;;;8.30;58.50;;;;;;5034238;28;20473;-78
2022/12/15 08:43:20;;;;;;;8.38;5.75;;;8.30;58.50;;;;;;5035779;28;20429;-79
2022/12/15 08:45:45;;;;;;;7.50;5.13;;;8.30;58.50;;;;;;5033772;28;20033;-79
2022/12/15 08:48:11;;;;;;;8.00;5.63;;;8.30;58.40;;;;;;5034754;28;20440;-78
2022/12/15 08:50:41;;;;;;;7.57;5.65;;;8.30;58.30;;;;;;5035294;28;20377;-79
2022/12/15 08:53:09;;;;;;;6.40;5.30;;;8.30;58.20;;;;;;5025567;28;20033;-81
2022/12/15 08:55:35;;;;;;;7.10;5.15;;;8.30;58.20;;;;;;5018912;28;20043;-78
2022/12/15 08:58:01;;;;;;;7.43;5.03;;;8.30;58.20;;;;;;5040040;28;20034;-78
2022/12/15 09:00:27;;;;;;;6.68;4.88;;;8.30;58.20;;;;;;5039671;28;20169;-79
2022/12/15 09:02:53;;;;;;;7.85;5.20;;;8.30;58.10;;;;;;5037174;28;20302;-79
2022/12/15 09:05:19;;;;;;;8.05;5.25;;;8.30;58.10;;;;;;5034997;28;20025;-78
2022/12/15 09:07:45;;;;;;;8.23;5.72;;;8.30;58.10;;;;;;5032945;28;20033;-78
2022/12/15 09:10:11;;;;;;;6.78;5.07;;;8.30;58.10;;;;;;5017050;28;20033;-78
2022/12/15 09:12:37;;;;;;;7.32;5.32;;;8.30;58.10;;;;;;5033234;28;20040;-79
2022/12/15 09:15:03;;;;;;;7.10;5.25;;;8.30;58.00;;;;;;5034454;28;20512;-78
2022/12/15 09:17:29;;;;;;;6.20;4.90;;;8.30;57.80;;;;;;5050577;28;20026;-81
2022/12/15 09:19:55;;;;;;;6.28;4.97;;;8.30;57.80;;;;;;5016886;28;20034;-76
2022/12/15 09:22:21;;;;;;;6.88;5.05;;;8.40;57.80;;;;;;5034809;28;20657;-77
2022/12/15 09:24:48;;;;;;;6.88;4.40;;;8.30;57.90;;;;;;5034177;28;20045;-77
2022/12/15 09:27:13;;;;;;;6.22;4.60;;;8.30;57.80;;;;;;5033843;28;20067;-77
2022/12/15 09:29:39;;;;;;;6.90;4.88;;;8.30;57.80;;;;;;5036026;28;20029;-78
2022/12/15 09:32:06;;;;;;;6.13;4.75;;;8.40;57.80;;;;;;5033952;28;20045;-77
2022/12/15 09:34:32;;;;;;;7.22;5.05;;;8.40;57.80;;;;;;5034747;28;20120;-77
2022/12/15 09:36:58;;;;;;;8.18;5.45;;;8.40;57.70;;;;;;5039440;28;20034;-77
2022/12/15 09:39:24;;;;;;;6.85;5.28;;;8.40;57.70;;;;;;5037200;28;20040;-78
2022/12/15 09:41:58;;;;;;;8.25;5.00;;;8.40;57.60;;;;;;5038667;28;20034;-77
2022/12/15 09:44:26;;;;;;;7.85;5.53;;;8.40;57.50;;;;;;5037483;28;20060;-77
2022/12/15 09:47:14;;;;;;;8.95;6.03;;;8.40;57.60;;;;;;5039623;28;20078;-77
2022/12/15 09:49:55;;;;;;;8.18;5.30;;;8.40;57.60;;;;;;5037820;28;20146;-77
2022/12/15 09:52:47;;;;;;;7.47;5.30;;;8.40;57.50;;;;;;5038502;28;20045;-77
2022/12/15 09:55:19;;;;;;;8.25;5.70;;;8.40;57.50;;;;;;5020775;28;20587;-78
2022/12/15 09:57:51;;;;;;;7.85;5.05;;;8.40;57.50;;;;;;5037153;28;20038;-76
2022/12/15 10:00:29;;;;;;;8.25;5.07;;;8.40;57.40;;;;;;5037731;28;20179;-77
2022/12/15 10:03:04;;;;;;;7.78;5.75;;;8.40;57.40;;;;;;5035606;28;20030;-77
2022/12/15 10:05:51;;;;;;;7.50;5.38;;;8.40;57.40;;;;;;5036233;28;20037;-77
2022/12/15 10:08:19;;;;;;;8.75;5.60;;;8.40;57.40;;;;;;5038045;28;20393;-77
2022/12/15 10:10:51;;;;;;;7.97;5.05;;;8.40;57.40;;;;;;5037624;28;20092;-77
2022/12/15 10:13:29;;;;;;;7.82;5.50;;;8.40;57.50;;;;;;5037302;28;20057;-77
2022/12/15 10:16:21;;;;;;;7.05;5.50;;;8.40;57.40;;;;;;5036493;28;20061;-77
2022/12/15 10:19:29;;;;;;;8.48;5.50;;;8.40;57.40;;;;;;5053086;28;20059;-76
2022/12/15 10:21:57;;;;;;;6.35;4.90;;;8.40;57.50;;;;;;4979281;28;20450;-77
2022/12/15 10:24:24;;;;;;;7.15;5.50;;;8.50;57.60;;;;;;4980335;28;20051;-76
2022/12/15 10:27:17;;;;;;;6.78;5.53;;;8.40;57.60;;;;;;4982413;28;20054;-77
2022/12/15 10:30:01;;;;;;;8.07;5.50;;;8.50;57.60;;;;;;4979220;28;20043;-76
2022/12/15 10:32:31;;;;;;;8.32;5.57;;;8.50;57.50;;;;;;4977374;28;20403;-77
2022/12/15 10:34:57;;;;;;;8.23;5.63;;;8.50;57.50;;;;;;4979966;28;20039;-77
2022/12/15 10:37:23;;;;;;;11.38;6.40;;;8.50;57.60;;;;;;4980012;28;20496;-76
2022/12/15 10:39:50;;;;;;;8.45;5.93;;;8.50;57.60;;;;;;4959991;28;20030;-76
2022/12/15 10:42:22;;;;;;;9.20;5.72;;;8.50;57.60;;;;;;4981126;28;20130;-77
2022/12/15 10:44:53;;;;;;;8.98;6.28;;;8.50;57.70;;;;;;4980510;28;20053;-76
2022/12/15 10:47:28;;;;;;;10.88;6.70;;;8.50;57.70;;;;;;4979563;28;20038;-76
2022/12/15 10:50:14;;;;;;;9.37;6.63;;;8.50;57.80;;;;;;4980358;28;21220;-77
2022/12/15 10:52:39;;;;;;;10.73;6.43;;;8.50;57.80;;;;;;4979878;28;20285;-76
2022/12/15 10:55:30;;;;;;;9.90;6.60;;;8.50;57.90;;;;;;4980342;28;20038;-77
2022/12/15 10:57:58;;;;;;;9.25;6.05;;;8.50;57.90;;;;;;5021736;28;20037;-77
2022/12/15 11:00:31;;;;;;;8.55;6.13;;;8.50;57.80;;;;;;5036389;28;20033;-77
2022/12/15 11:02:57;;;;;;;9.43;6.07;;;8.50;57.80;;;;;;5036016;28;20408;-76
2022/12/15 11:05:24;;;;;;;10.23;6.47;;;8.50;57.90;;;;;;5037043;28;20025;-76
2022/12/15 11:08:01;;;;;;;9.02;6.22;;;8.50;58.00;;;;;;5037383;28;20188;-77
2022/12/15 11:13:33;;;;;;;9.68;6.88;;;8.50;58.00;;;;;;5036005;28;20037;-76
2022/12/15 11:16:18;;;;;;;9.38;5.80;;;8.50;58.20;;;;;;5035404;28;20039;-76
2022/12/15 11:18:52;;;;;;;9.95;6.85;;;8.50;58.20;;;;;;5035845;28;20068;-77
2022/12/15 11:21:21;;;;;;;8.82;6.57;;;8.40;58.30;;;;;;5036478;28;20041;-77
2022/12/15 11:24:14;;;;;;;10.23;6.88;;;8.40;58.20;;;;;;5037103;28;20076;-77
2022/12/15 11:26:57;;;;;;;9.30;6.38;;;8.50;58.40;;;;;;5036670;28;20052;-76
2022/12/15 11:29:54;;;;;;;10.32;6.93;;;8.40;58.40;;;;;;5035654;28;20034;-76
2022/12/15 11:32:24;;;;;;;10.57;6.82;;;8.40;58.40;;;;;;5047787;28;20435;-77
2022/12/15 11:34:50;;;;;;;9.95;7.05;;;8.40;58.40;;;;;;5045913;28;20075;-77
2022/12/15 11:37:39;;;;;;;9.07;6.65;;;8.50;58.40;;;;;;5048691;28;20032;-76
2022/12/15 11:40:23;;;;;;;10.02;7.30;;;8.40;58.20;;;;;;5049130;28;20033;-76
2022/12/15 11:43:23;;;;;;;10.48;6.93;;;8.40;58.20;;;;;;5032779;28;20041;-78
2022/12/15 11:46:07;;;;;;;10.68;7.18;;;8.40;58.10;;;;;;5015880;28;20065;-78
2022/12/15 11:48:56;;;;;;;11.95;8.02;;;8.40;58.10;;;;;;5050685;28;20500;-77
2022/12/15 11:51:28;;;;;;;11.85;6.93;;;8.40;58.10;;;;;;5042991;28;20033;-79
2022/12/15 11:54:20;;;;;;;11.82;7.75;;;8.30;58.00;;;;;;5014424;28;20047;-77
2022/12/15 11:57:15;;;;;;;11.60;7.88;;;8.30;58.10;;;;;;5043232;28;20060;-79
2022/12/15 12:00:09;;;;;;;13.40;7.70;;;8.30;58.20;;;;;;5047965;28;20037;-81
2022/12/15 12:02:56;;;;;;;13.02;7.80;;;8.30;58.20;;;;;;5033167;28;20421;-79
2022/12/15 12:06:07;;;;;;;11.80;8.00;;;8.30;58.30;;;;;;5033654;28;20124;-78
2022/12/15 12:08:39;;;;;;;11.32;7.88;;;8.30;58.50;;;;;;5048343;28;20474;-76
2022/12/15 12:11:28;;;;;;;13.20;7.93;;;8.20;58.60;;;;;;5031789;28;20365;-76
2022/12/15 12:14:35;;;;;;;11.70;7.05;;;8.20;58.60;;;;;;5031439;28;20132;-77
2022/12/15 12:17:05;;;;;;;11.57;7.22;;;8.20;58.40;;;;;;5042277;28;20037;-76
2022/12/15 12:19:40;;;;;;;10.02;6.90;;;8.20;58.30;;;;;;5050170;28;20041;-76
2022/12/15 12:22:31;;;;;;;10.75;7.43;;;8.20;58.20;;;;;;5042255;28;20037;-75
2022/12/15 12:25:17;;;;;;;12.48;7.40;;;8.10;58.10;;;;;;5017817;28;20695;-77
2022/12/15 12:27:52;;;;;;;11.32;7.68;;;8.10;58.00;;;;;;5039498;28;20534;-78
2022/12/15 12:30:21;;;;;;;11.00;7.32;;;8.10;57.90;;;;;;5049984;28;20049;-78
2022/12/15 12:33:46;;;;;;;10.85;7.05;;;8.10;57.90;;;;;;5024792;28;20469;-77
2022/12/15 12:36:14;;;;;;;9.20;7.10;;;8.10;57.90;;;;;;4972219;28;20058;-76
2022/12/15 12:38:45;;;;;;;10.45;7.03;;;8.10;57.90;;;;;;4973027;28;20418;-75
2022/12/15 12:41:36;;;;;;;10.50;6.97;;;8.00;57.90;;;;;;4972052;28;20039;-76
2022/12/15 12:44:36;;;;;;;11.00;7.60;;;8.10;57.90;;;;;;4969978;28;20042;-76
2022/12/15 12:47:26;;;;;;;11.05;7.22;;;8.00;57.90;;;;;;4975182;28;20034;-76
2022/12/15 12:50:13;;;;;;;12.10;8.00;;;8.00;58.10;;;;;;4978365;28;20085;-76
2022/12/15 12:52:50;;;;;;;11.68;7.70;;;8.00;58.20;;;;;;4984618;28;20086;-76
2022/12/15 12:55:28;;;;;;;11.02;7.50;;;8.00;58.30;;;;;;4980776;28;20073;-76
2022/12/15 12:57:54;;;;;;;11.45;7.45;;;8.00;58.30;;;;;;4987767;28;20049;-76
2022/12/15 13:00:31;;;;;;;11.73;7.20;;;8.00;58.30;;;;;;4974288;28;20186;-78
2022/12/15 13:03:17;;;;;;;12.50;7.97;;;7.90;58.40;;;;;;4980771;28;20041;-76
2022/12/15 13:05:45;;;;;;;11.45;7.80;;;7.90;58.50;;;;;;4987624;28;20105;-77
2022/12/15 13:08:12;;;;;;;12.23;7.95;;;7.90;58.60;;;;;;5049249;28;20041;-75
2022/12/15 13:10:43;;;;;;;11.98;7.63;;;7.90;58.50;;;;;;5034260;28;20060;-77
2022/12/15 13:13:28;;;;;;;14.02;7.82;;;7.90;58.70;;;;;;5039587;28;21059;-76
2022/12/15 13:16:12;;;;;;;11.90;7.47;;;7.90;58.80;;;;;;5038421;28;20422;-76
2022/12/15 13:19:02;;;;;;;12.55;8.32;;;7.90;58.80;;;;;;5041792;28;20033;-76
2022/12/15 13:21:43;;;;;;;11.05;7.65;;;7.90;58.90;;;;;;5042339;28;20045;-76
2022/12/15 13:24:31;;;;;;;11.20;7.80;;;7.90;58.90;;;;;;5035299;28;20033;-76
2022/12/15 13:27:10;;;;;;;13.65;8.02;;;7.80;58.80;;;;;;5033920;28;20046;-76
2022/12/15 13:30:21;;;;;;;11.30;7.43;;;7.80;58.90;;;;;;5035728;28;20021;-75
2022/12/15 13:32:52;;;;;;;12.80;7.53;;;7.80;58.90;;;;;;5032320;28;20061;-76
2022/12/15 13:35:30;;;;;;;12.93;7.65;;;7.80;58.90;;;;;;5033382;28;20648;-76
2022/12/15 13:38:03;;;;;;;10.85;7.25;;;7.80;58.90;;;;;;5048872;28;20033;-76
2022/12/15 13:40:35;;;;;;;11.10;7.40;;;7.80;58.90;;;;;;5034318;28;20033;-77
2022/12/15 13:43:04;;;;;;;12.15;7.85;;;7.80;58.80;;;;;;5034715;28;20042;-74
2022/12/15 13:45:44;;;;;;;13.35;7.82;;;7.80;59.00;;;;;;5034251;28;20431;-75
2022/12/15 13:48:19;;;;;;;11.20;7.40;;;7.70;59.00;;;;;;5023252;28;20033;-75
2022/12/15 13:51:01;;;;;;;12.25;8.02;;;7.70;58.70;;;;;;5034138;28;20021;-76
2022/12/15 13:53:31;;;;;;;15.32;8.43;;;7.70;57.80;;;;;;5031960;28;20061;-77
2022/12/15 13:56:05;;;;;;;10.90;7.93;;;7.70;57.00;;;;;;5024228;28;20175;-79
2022/12/15 13:58:46;;;;;;;11.57;7.87;;;7.60;56.20;;;;;;5032626;28;20037;-79
2022/12/15 14:01:46;;;;;;;10.55;7.32;;;7.60;55.80;;;;;;5034820;28;20051;-78
2022/12/15 14:04:14;;;;;;;12.27;8.20;;;7.60;55.60;;;;;;5016906;28;20038;-78
2022/12/15 14:06:47;;;;;;;11.90;7.38;;;7.50;55.20;;;;;;5036762;28;20069;-78
2022/12/15 14:09:18;;;;;;;12.25;7.50;;;7.50;55.10;;;;;;5031043;28;20120;-77
2022/12/15 14:11:45;;;;;;;12.73;8.25;;;7.40;54.90;;;;;;5033472;28;20076;-77
2022/12/15 14:14:36;;;;;;;11.32;7.80;;;7.40;54.70;;;;;;5032923;28;20083;-77
2022/12/15 14:17:14;;;;;;;14.52;8.80;;;7.30;54.60;;;;;;5037667;28;20030;-77
2022/12/15 14:19:42;;;;;;;12.75;8.38;;;7.30;54.60;;;;;;5020892;28;20091;-77
2022/12/15 14:22:40;;;;;;;12.30;7.90;;;7.30;54.40;;;;;;5037214;28;20037;-79
2022/12/15 14:25:22;;;;;;;11.98;8.05;;;7.20;54.30;;;;;;5019446;28;20037;-75
2022/12/15 14:27:49;;;;;;;12.15;8.07;;;7.20;54.00;;;;;;5037561;28;20542;-77
2022/12/15 14:30:31;;;;;;;12.95;8.05;;;7.10;53.70;;;;;;5037522;28;20049;-76
2022/12/15 14:33:06;;;;;;;13.30;8.77;;;7.10;53.70;;;;;;5039043;28;20025;-76
2022/12/15 14:35:47;;;;;;;13.93;9.17;;;7.10;53.60;;;;;;5035842;28;20550;-79
2022/12/15 14:38:21;;;;;;;13.13;8.75;;;7.00;53.60;;;;;;5038138;28;20428;-78
2022/12/15 14:40:50;;;;;;;13.57;8.65;;;7.00;53.50;;;;;;5036902;28;20112;-76
2022/12/15 14:43:23;;;;;;;11.85;8.45;;;7.00;53.50;;;;;;5035619;28;20048;-76
2022/12/15 14:46:05;;;;;;;11.90;8.00;;;6.90;53.40;;;;;;5037058;28;20099;-76
2022/12/15 14:48:36;;;;;;;13.35;8.02;;;6.90;53.40;;;;;;5036900;28;20044;-77
2022/12/15 14:51:03;;;;;;;13.35;8.63;;;6.80;53.50;;;;;;5034178;28;20466;-78
2022/12/15 14:53:38;;;;;;;14.27;8.77;;;6.80;53.40;;;;;;5035898;28;20044;-77
2022/12/15 14:56:22;;;;;;;14.52;8.88;;;6.80;53.40;;;;;;5035439;28;20040;-76
2022/12/15 14:59:03;;;;;;;15.48;8.73;;;6.70;53.20;;;;;;5036750;28;20045;-77
2022/12/15 15:01:38;;;;;;;14.32;9.02;;;6.70;53.20;;;;;;5036195;28;20557;-78
2022/12/15 15:04:28;;;;;;;13.77;8.55;;;6.70;53.30;;;;;;5037918;28;20500;-78
2022/12/15 15:07:00;;;;;;;13.35;8.50;;;6.60;53.40;;;;;;5038055;28;20592;-77
2022/12/15 15:09:27;;;;;;;15.18;8.60;;;6.60;53.30;;;;;;5035637;28;20051;-77
2022/12/15 15:12:01;;;;;;;14.43;9.20;;;6.60;53.40;;;;;;5035572;28;20124;-76
2022/12/15 15:15:07;;;;;;;12.43;7.75;;;6.50;53.30;;;;;;5035793;28;20037;-74
2022/12/15 15:17:42;;;;;;;14.35;9.10;;;6.50;53.30;;;;;;5049921;28;20060;-74
2022/12/15 15:20:21;;;;;;;15.10;8.90;;;6.50;53.20;;;;;;5034651;28;20083;-74
2022/12/15 15:23:09;;;;;;;15.63;9.48;;;6.50;53.30;;;;;;5036081;28;20068;-75
2022/12/15 15:25:47;;;;;;;15.18;9.45;;;6.50;53.30;;;;;;5034983;28;20029;-77
2022/12/15 15:28:17;;;;;;;14.27;8.57;;;6.40;53.30;;;;;;5026324;28;20064;-75
2022/12/15 15:31:27;;;;;;;15.32;8.57;;;6.40;53.60;;;;;;5035696;28;20111;-75
2022/12/15 15:33:57;;;;;;;15.20;8.50;;;6.40;53.70;;;;;;5030953;28;20127;-74
2022/12/15 15:36:31;;;;;;;15.38;9.25;;;6.40;53.70;;;;;;5034572;28;20029;-76
2022/12/15 15:38:57;;;;;;;14.85;9.15;;;6.40;53.70;;;;;;5027603;28;20043;-75
2022/12/15 15:41:33;;;;;;;14.73;9.05;;;6.40;53.70;;;;;;5037345;28;20091;-75
2022/12/15 15:44:00;;;;;;;15.68;8.40;;;6.40;53.70;;;;;;5034846;28;20052;-75
2022/12/15 15:46:33;;;;;;;17.48;9.20;;;6.30;53.70;;;;;;5050702;28;20532;-75
2022/12/15 15:49:04;;;;;;;16.70;9.23;;;6.30;53.80;;;;;;5035463;28;20053;-74